Wetterdaten: Woche 02.07.07 - 08.07.07 (KW27)
Datum Zeit Temperatur Luftfeuchte Luftdruck Niederschlag
02.07.2007 00:00 15,8 C 92 % 0 hPa 1,0 l/m
02.07.2007 01:00 15,8 C 92 % 0 hPa 0,0 l/m
02.07.2007 02:00 15,3 C 94 % 0 hPa 0,0 l/m
02.07.2007 03:00 15,0 C 94 % 0 hPa 0,0 l/m
02.07.2007 04:00 14,7 C 95 % 0 hPa 0,0 l/m
02.07.2007 05:00 14,7 C 95 % 0 hPa 0,0 l/m
02.07.2007 06:00 14,7 C 95 % 0 hPa 0,0 l/m
02.07.2007 07:00 14,7 C 95 % 0 hPa 0,0 l/m
02.07.2007 08:00 14,6 C 96 % 0 hPa 1,0 l/m
02.07.2007 09:00 14,7 C 97 % 0 hPa 1,0 l/m
02.07.2007 10:00 14,9 C 97 % 0 hPa 0,0 l/m
02.07.2007 11:00 14,9 C 97 % 0 hPa 0,0 l/m
02.07.2007 12:00 15,0 C 95 % 0 hPa 0,0 l/m
02.07.2007 13:00 15,2 C 94 % 0 hPa 1,0 l/m
02.07.2007 14:00 15,2 C 94 % 0 hPa 0,0 l/m
02.07.2007 15:00 15,1 C 94 % 0 hPa 0,0 l/m
02.07.2007 16:00 14,8 C 94 % 0 hPa 0,0 l/m
02.07.2007 17:00 15,9 C 84 % 0 hPa 0,0 l/m
02.07.2007 18:00 16,1 C 75 % 0 hPa 0,0 l/m
02.07.2007 19:00 15,5 C 82 % 0 hPa 0,0 l/m
02.07.2007 20:00 14,8 C 80 % 0 hPa 0,0 l/m
02.07.2007 21:00 14,2 C 81 % 0 hPa 0,0 l/m
02.07.2007 22:00 13,8 C 87 % 0 hPa 0,0 l/m
02.07.2007 23:00 13,5 C 89 % 0 hPa 0,0 l/m
03.07.2007 00:00 13,4 C 85 % 0 hPa 0,0 l/m
03.07.2007 01:00 13,1 C 90 % 0 hPa 0,0 l/m
03.07.2007 02:00 12,6 C 92 % 0 hPa 0,0 l/m
03.07.2007 03:00 12,1 C 93 % 0 hPa 0,0 l/m
03.07.2007 04:00 11,7 C 95 % 0 hPa 0,0 l/m
03.07.2007 05:00 11,4 C 96 % 0 hPa 0,0 l/m
03.07.2007 06:00 11,6 C 97 % 0 hPa 0,0 l/m
03.07.2007 07:00 12,8 C 96 % 0 hPa 0,0 l/m
03.07.2007 08:00 14,5 C 86 % 0 hPa 0,0 l/m
03.07.2007 09:00 16,7 C 62 % 0 hPa 0,0 l/m
03.07.2007 10:00 18,1 C 51 % 0 hPa 0,0 l/m
03.07.2007 11:00 18,4 C 48 % 0 hPa 0,0 l/m
03.07.2007 12:00 19,3 C 46 % 0 hPa 0,0 l/m
03.07.2007 13:00 19,1 C 47 % 0 hPa 0,0 l/m
03.07.2007 14:00 16,6 C 60 % 0 hPa 0,0 l/m
03.07.2007 15:00 15,0 C 74 % 0 hPa 2,0 l/m
03.07.2007 16:00 14,9 C 78 % 0 hPa 0,0 l/m
03.07.2007 17:00 14,2 C 82 % 0 hPa 1,0 l/m
03.07.2007 18:00 13,8 C 90 % 0 hPa 1,0 l/m
03.07.2007 19:00 13,1 C 92 % 0 hPa 1,0 l/m
03.07.2007 20:00 12,5 C 94 % 0 hPa 1,0 l/m
03.07.2007 21:00 12,2 C 96 % 0 hPa 1,0 l/m
03.07.2007 22:00 12,1 C 97 % 0 hPa 0,0 l/m
03.07.2007 23:00 12,2 C 98 % 0 hPa 0,0 l/m
04.07.2007 00:00 12,4 C 98 % 0 hPa 0,0 l/m
04.07.2007 01:00 12,0 C 98 % 0 hPa 0,0 l/m
04.07.2007 02:00 12,0 C 98 % 0 hPa 0,0 l/m
04.07.2007 03:00 12,0 C 98 % 0 hPa 0,0 l/m
04.07.2007 04:00 12,0 C 98 % 0 hPa 0,0 l/m
04.07.2007 05:00 11,3 C 95 % 0 hPa 7,0 l/m
04.07.2007 06:00 10,5 C 94 % 0 hPa 1,0 l/m
04.07.2007 07:00 10,7 C 96 % 0 hPa 1,0 l/m
04.07.2007 08:00 11,5 C 97 % 0 hPa 0,0 l/m
04.07.2007 09:00 12,4 C 92 % 0 hPa 0,0 l/m
04.07.2007 10:00 13,7 C 73 % 0 hPa 0,0 l/m
04.07.2007 11:00 13,6 C 74 % 0 hPa 0,0 l/m
04.07.2007 12:00 13,7 C 66 % 0 hPa 0,0 l/m
04.07.2007 13:00 15,5 C 53 % 0 hPa 0,0 l/m
04.07.2007 14:00 16,0 C 50 % 0 hPa 1,0 l/m
04.07.2007 15:00 14,8 C 57 % 0 hPa 0,0 l/m
04.07.2007 16:00 15,6 C 50 % 0 hPa 0,0 l/m
04.07.2007 17:00 14,6 C 52 % 0 hPa 0,0 l/m
04.07.2007 18:00 13,3 C 70 % 0 hPa 1,0 l/m
04.07.2007 19:00 12,6 C 73 % 0 hPa 0,0 l/m
04.07.2007 20:00 11,9 C 75 % 0 hPa 0,0 l/m
04.07.2007 21:00 11,3 C 80 % 0 hPa 0,0 l/m
04.07.2007 22:00 10,9 C 79 % 0 hPa 0,0 l/m
04.07.2007 23:00 10,7 C 79 % 0 hPa 0,0 l/m
05.07.2007 00:00 10,4 C 79 % 0 hPa 0,0 l/m
05.07.2007 01:00 10,5 C 82 % 0 hPa 0,0 l/m
05.07.2007 02:00 10,8 C 82 % 0 hPa 0,0 l/m
05.07.2007 03:00 10,6 C 83 % 0 hPa 0,0 l/m
05.07.2007 04:00 10,4 C 83 % 0 hPa 0,0 l/m
05.07.2007 05:00 10,4 C 83 % 0 hPa 0,0 l/m
05.07.2007 06:00 10,8 C 81 % 0 hPa 0,0 l/m
05.07.2007 07:00 10,7 C 82 % 0 hPa 0,0 l/m
05.07.2007 08:00 11,6 C 77 % 0 hPa 0,0 l/m
05.07.2007 09:00 12,0 C 72 % 0 hPa 0,0 l/m
05.07.2007 10:00 12,4 C 68 % 0 hPa 0,0 l/m
05.07.2007 11:00 13,7 C 57 % 0 hPa 0,0 l/m
05.07.2007 12:00 14,7 C 55 % 0 hPa 0,0 l/m
05.07.2007 13:00 13,3 C 67 % 0 hPa 0,0 l/m
05.07.2007 14:00 11,9 C 83 % 0 hPa 0,0 l/m
05.07.2007 15:00 12,6 C 81 % 0 hPa 0,0 l/m
05.07.2007 16:00 12,9 C 77 % 0 hPa 0,0 l/m
05.07.2007 17:00 13,9 C 69 % 0 hPa 0,0 l/m
05.07.2007 18:00 14,0 C 67 % 0 hPa 0,0 l/m
05.07.2007 19:00 13,6 C 70 % 0 hPa 0,0 l/m
05.07.2007 20:00 13,2 C 71 % 0 hPa 1,0 l/m
05.07.2007 21:00 12,7 C 72 % 0 hPa 0,0 l/m
05.07.2007 22:00 12,5 C 71 % 0 hPa 0,0 l/m
05.07.2007 23:00 12,6 C 72 % 0 hPa 0,0 l/m
06.07.2007 00:00 12,5 C 72 % 0 hPa 0,0 l/m
06.07.2007 01:00 11,8 C 75 % 0 hPa 0,0 l/m
06.07.2007 02:00 10,9 C 80 % 0 hPa 0,0 l/m
06.07.2007 03:00 10,8 C 84 % 0 hPa 0,0 l/m
06.07.2007 04:00 11,0 C 82 % 0 hPa 0,0 l/m
06.07.2007 05:00 10,9 C 84 % 0 hPa 0,0 l/m
06.07.2007 06:00 10,7 C 88 % 0 hPa 0,0 l/m
06.07.2007 07:00 10,9 C 91 % 0 hPa 0,0 l/m
06.07.2007 08:00 11,2 C 92 % 0 hPa 0,0 l/m
06.07.2007 09:00 12,1 C 84 % 0 hPa 0,0 l/m
06.07.2007 10:00 13,8 C 74 % 0 hPa 0,0 l/m
06.07.2007 11:00 14,7 C 70 % 0 hPa 0,0 l/m
06.07.2007 12:00 15,8 C 69 % 0 hPa 0,0 l/m
06.07.2007 13:00 17,0 C 66 % 0 hPa 0,0 l/m
06.07.2007 14:00 17,0 C 67 % 0 hPa 0,0 l/m
06.07.2007 15:00 16,7 C 75 % 0 hPa 0,0 l/m
06.07.2007 16:00 18,1 C 62 % 0 hPa 0,0 l/m
06.07.2007 17:00 18,9 C 59 % 0 hPa 0,0 l/m
06.07.2007 18:00 18,6 C 57 % 0 hPa 0,0 l/m
06.07.2007 19:00 18,7 C 53 % 0 hPa 0,0 l/m
06.07.2007 20:00 17,9 C 54 % 0 hPa 0,0 l/m
06.07.2007 21:00 17,0 C 56 % 0 hPa 0,0 l/m
06.07.2007 22:00 16,2 C 60 % 0 hPa 0,0 l/m
06.07.2007 23:00 15,8 C 59 % 0 hPa 0,0 l/m
07.07.2007 00:00 15,3 C 64 % 0 hPa 0,0 l/m
07.07.2007 01:00 14,9 C 70 % 0 hPa 0,0 l/m
07.07.2007 02:00 13,7 C 74 % 0 hPa 0,0 l/m
07.07.2007 03:00 12,2 C 82 % 0 hPa 0,0 l/m
07.07.2007 04:00 11,1 C 85 % 0 hPa 0,0 l/m
07.07.2007 05:00 10,5 C 89 % 0 hPa 0,0 l/m
07.07.2007 06:00 10,8 C 92 % 0 hPa 0,0 l/m
07.07.2007 07:00 12,8 C 93 % 0 hPa 0,0 l/m
07.07.2007 08:00 15,5 C 74 % 0 hPa 0,0 l/m
07.07.2007 09:00 16,4 C 59 % 0 hPa 0,0 l/m
07.07.2007 10:00 17,4 C 52 % 0 hPa 0,0 l/m
07.07.2007 11:00 18,6 C 50 % 0 hPa 0,0 l/m
07.07.2007 12:00 19,7 C 46 % 0 hPa 0,0 l/m
07.07.2007 13:00 20,7 C 45 % 0 hPa 0,0 l/m
07.07.2007 14:00 21,5 C 42 % 0 hPa 0,0 l/m
07.07.2007 15:00 22,3 C 41 % 0 hPa 0,0 l/m
07.07.2007 16:00 22,9 C 39 % 0 hPa 0,0 l/m
07.07.2007 17:00 23,5 C 37 % 0 hPa 0,0 l/m
07.07.2007 18:00 24,1 C 34 % 0 hPa 0,0 l/m
07.07.2007 19:00 22,6 C 38 % 0 hPa 0,0 l/m
07.07.2007 20:00 20,6 C 42 % 0 hPa 0,0 l/m
07.07.2007 21:00 18,5 C 51 % 0 hPa 0,0 l/m
07.07.2007 22:00 16,2 C 62 % 0 hPa 0,0 l/m
07.07.2007 23:00 15,3 C 69 % 0 hPa 0,0 l/m
08.07.2007 00:00 14,9 C 71 % 0 hPa 0,0 l/m
08.07.2007 01:00 14,3 C 73 % 0 hPa 0,0 l/m
08.07.2007 02:00 13,6 C 76 % 0 hPa 0,0 l/m
08.07.2007 03:00 12,9 C 79 % 0 hPa 0,0 l/m
08.07.2007 04:00 12,6 C 81 % 0 hPa 0,0 l/m
08.07.2007 05:00 12,5 C 82 % 0 hPa 0,0 l/m
08.07.2007 06:00 12,8 C 82 % 0 hPa 0,0 l/m
08.07.2007 07:00 14,5 C 77 % 0 hPa 0,0 l/m
08.07.2007 08:00 17,1 C 66 % 0 hPa 0,0 l/m
08.07.2007 09:00 20,0 C 57 % 0 hPa 0,0 l/m
08.07.2007 10:00 21,9 C 50 % 0 hPa 0,0 l/m
08.07.2007 11:00 22,6 C 48 % 0 hPa 0,0 l/m
08.07.2007 12:00 23,2 C 45 % 0 hPa 0,0 l/m
08.07.2007 13:00 23,7 C 43 % 0 hPa 0,0 l/m
08.07.2007 14:00 19,7 C 68 % 0 hPa 0,0 l/m
08.07.2007 15:00 17,1 C 81 % 0 hPa 1,0 l/m
08.07.2007 16:00 17,2 C 85 % 0 hPa 2,0 l/m
08.07.2007 17:00 17,7 C 88 % 0 hPa 0,0 l/m
08.07.2007 18:00 18,6 C 84 % 0 hPa 0,0 l/m
08.07.2007 19:00 18,5 C 82 % 0 hPa 0,0 l/m
08.07.2007 20:00 18,1 C 84 % 0 hPa 0,0 l/m
08.07.2007 21:00 17,4 C 87 % 0 hPa 0,0 l/m
08.07.2007 22:00 16,3 C 90 % 0 hPa 0,0 l/m
08.07.2007 23:00 15,6 C 93 % 0 hPa 0,0 l/m
Min-Datum _ 05.07.07 07.07.07 02.07.07 -
_ Min-Zeit 04:33 18:19 00:00 -
Minimum _ 10,3 C 33 % 0 hPa -
Max-Datum _ 07.07.07 03.07.07 02.07.07 04.07.07
_ Max-Zeit 18:09 23:09 00:00 05:11
Maximum _ 24,4 C 98 % 0 hPa 7,0 l/m
Durchschnitt _ 14,7 C 76 % 0 hPa #26,0 l/m

Durchschnitt Minimum Temp.14,4 C
Durchschnitt Maximum Temp.15,1 C